Time;durP1;ratioP1;P1;durP2;ratioP2;P2;SDS_P1;SDS_P2;PMS_P1;PMS_P2;Temp;Humidity;BMP_temperature;BMP_pressure;BME280_temperature;BME280_humidity;BME280_pressure;Samples;Min_cycle;Max_cycle;Signal;HPM_P1;HPM_P2
2021/09/11 00:07:37;;;;;;;4.83;4.43;;;;;;;10.13;100.00;100583.81;20752820;28;20567;-61
2021/09/11 00:17:42;;;;;;;5.00;4.23;;;;;;;10.06;100.00;100578.84;20757198;28;20633;-61
2021/09/11 00:27:44;;;;;;;6.80;5.90;;;;;;;10.26;100.00;100583.06;20756250;28;20726;-67
2021/09/11 00:37:48;;;;;;;5.50;5.00;;;;;;;10.41;100.00;100583.94;20756036;28;20228;-62
2021/09/11 00:47:51;;;;;;;6.63;5.93;;;;;;;10.43;100.00;100566.03;20754572;28;20307;-62
2021/09/11 00:57:54;;;;;;;6.67;6.07;;;;;;;10.63;100.00;100556.81;20754294;28;20576;-61
2021/09/11 01:07:57;;;;;;;7.17;6.57;;;;;;;10.78;100.00;100555.88;20753532;28;20229;-62
2021/09/11 01:18:01;;;;;;;5.80;5.30;;;;;;;10.70;100.00;100553.69;20752248;28;20224;-61
2021/09/11 01:28:05;;;;;;;5.17;4.70;;;;;;;10.31;100.00;100562.28;20752103;28;20233;-61
2021/09/11 01:38:07;;;;;;;7.23;6.53;;;;;;;10.36;100.00;100554.88;20751227;28;20586;-61
2021/09/11 01:48:11;;;;;;;6.50;5.90;;;;;;;10.35;100.00;100558.50;20750970;28;20233;-61
2021/09/11 01:58:13;;;;;;;6.60;6.00;;;;;;;9.84;100.00;100559.69;20750215;28;20225;-64
2021/09/11 02:08:21;;;;;;;6.97;5.73;;;;;;;9.60;100.00;100551.28;20747970;28;20243;-60
2021/09/11 02:28:25;;;;;;;8.37;7.47;;;;;;;9.68;100.00;100549.03;21164568;27;20545;-61
2021/09/11 02:38:27;;;;;;;8.70;7.80;;;;;;;9.94;100.00;100546.69;21143757;28;20558;-62
2021/09/11 02:48:31;;;;;;;8.17;7.37;;;;;;;10.11;100.00;100541.25;21142679;28;20655;-63
2021/09/11 02:58:33;;;;;;;9.30;7.90;;;;;;;10.20;100.00;100532.72;21140899;28;20308;-62
2021/09/11 03:18:34;;;;;;;9.43;8.53;;;;;;;10.29;100.00;100541.97;20985377;27;20576;-61
2021/09/11 03:28:36;;;;;;;10.50;8.90;;;;;;;10.26;100.00;100536.84;20976552;28;20222;-61
2021/09/11 03:38:40;;;;;;;9.70;8.70;;;;;;;10.24;100.00;100522.75;20976254;28;20219;-62
2021/09/11 03:48:42;;;;;;;10.33;8.60;;;;;;;10.13;100.00;100520.69;20975174;28;20314;-62
2021/09/11 03:58:46;;;;;;;8.63;7.83;;;;;;;10.09;100.00;100529.81;20974941;28;20649;-62
2021/09/11 04:08:48;;;;;;;9.00;7.63;;;;;;;10.09;100.00;100528.00;20973373;28;20234;-62
2021/09/11 04:18:52;;;;;;;8.43;7.47;;;;;;;10.01;100.00;100540.94;20972201;28;20227;-62
2021/09/11 04:28:54;;;;;;;8.70;7.90;;;;;;;10.02;100.00;100539.94;20922093;28;20219;-62
2021/09/11 04:38:58;;;;;;;6.17;5.67;;;;;;;10.04;100.00;100548.72;20938006;28;20325;-63
2021/09/11 04:49:00;;;;;;;9.37;8.47;;;;;;;10.23;100.00;100537.03;20914959;28;20262;-61
2021/09/11 04:59:03;;;;;;;8.83;7.93;;;;;;;10.58;100.00;100546.44;20913869;28;20238;-61
2021/09/11 05:09:06;;;;;;;9.13;8.23;;;;;;;11.11;100.00;100545.78;20912802;28;20730;-61
2021/09/11 05:19:09;;;;;;;7.03;6.43;;;;;;;11.57;100.00;100550.03;20912516;28;20251;-63
2021/09/11 05:29:11;;;;;;;7.73;7.03;;;;;;;12.17;100.00;100559.41;20911775;28;20238;-63
2021/09/11 05:39:15;;;;;;;10.10;8.90;;;;;;;12.93;100.00;100545.22;20909821;28;20719;-64
2021/09/11 05:49:17;;;;;;;10.20;8.07;;;;;;;13.63;100.00;100550.94;20909103;28;20625;-62
2021/09/11 05:59:21;;;;;;;8.40;7.40;;;;;;;14.28;100.00;100550.50;20908780;28;20235;-63
2021/09/11 06:09:23;;;;;;;6.00;5.50;;;;;;;14.97;100.00;100556.81;20908198;28;20570;-62
2021/09/11 06:19:27;;;;;;;6.07;5.43;;;;;;;15.59;100.00;100559.00;20907145;28;20273;-62
2021/09/11 06:29:29;;;;;;;7.37;6.40;;;;;;;16.12;100.00;100563.53;20907258;28;20350;-61
2021/09/11 06:39:33;;;;;;;7.37;6.00;;;;;;;16.74;100.00;100560.06;20899466;28;20580;-63
2021/09/11 06:49:36;;;;;;;7.37;6.67;;;;;;;17.35;100.00;100579.00;20871479;28;20299;-61
2021/09/11 06:59:40;;;;;;;6.27;5.67;;;;;;;17.99;100.00;100575.94;20896492;28;20222;-63
2021/09/11 07:09:42;;;;;;;7.30;5.00;;;;;;;18.68;100.00;100583.94;20972245;28;20235;-69
2021/09/11 07:19:47;;;;;;;8.13;5.40;;;;;;;19.27;100.00;100585.53;20986553;28;20724;-61
2021/09/11 07:29:50;;;;;;;6.27;5.13;;;;;;;19.81;100.00;100575.72;20986313;28;20226;-62
2021/09/11 07:39:53;;;;;;;6.23;5.17;;;;;;;20.26;100.00;100571.16;20985588;28;20791;-62
2021/09/11 07:49:56;;;;;;;5.27;4.77;;;;;;;20.80;100.00;100569.25;20967833;28;20601;-62
2021/09/11 07:59:59;;;;;;;5.03;4.50;;;;;;;21.31;99.41;100575.75;20909976;28;20250;-62
2021/09/11 08:10:03;;;;;;;6.13;4.80;;;;;;;21.94;91.15;100578.91;20915079;28;20314;-64
2021/09/11 08:20:08;;;;;;;5.03;4.53;;;;;;;22.35;84.87;100581.72;20988152;28;20755;-60
2021/09/11 08:30:11;;;;;;;4.63;4.23;;;;;;;22.77;82.71;100576.16;20974925;28;20250;-60
2021/09/11 08:40:15;;;;;;;4.57;4.10;;;;;;;23.26;79.21;100572.34;20984147;28;20226;-61
2021/09/11 08:50:18;;;;;;;3.90;3.57;;;;;;;23.72;75.50;100568.97;20991147;28;20327;-63
2021/09/11 09:00:37;;;;;;;3.73;3.43;;;;;;;24.00;66.35;100551.94;20987230;28;20237;-64
2021/09/11 09:10:40;;;;;;;3.17;2.67;;;;;;;24.44;72.58;100559.50;20917022;28;20915;-66
2021/09/11 09:20:45;;;;;;;2.90;2.70;;;;;;;24.95;68.71;100562.50;20946133;28;20292;-66
2021/09/11 09:30:51;;;;;;;3.17;2.83;;;;;;;25.22;67.20;100570.09;20939252;28;20240;-63
2021/09/11 09:41:01;;;;;;;3.20;2.67;;;;;;;25.55;62.92;100566.97;20957971;28;20697;-63
2021/09/11 09:51:05;;;;;;;2.80;2.50;;;;;;;26.00;64.97;100561.25;20956248;28;20223;-63
2021/09/11 10:01:09;;;;;;;3.63;3.08;;;;;;;26.45;62.83;100554.59;20951005;28;20322;-63
2021/09/11 10:11:13;;;;;;;3.83;2.70;;;;;;;26.74;62.15;100548.13;20913197;28;20227;-72
2021/09/11 10:21:35;;;;;;;3.25;2.78;;;;;;;26.83;56.49;100548.84;20977390;28;20230;-68
2021/09/11 10:31:56;;;;;;;2.97;2.40;;;;;;;26.87;56.22;100542.78;20986485;28;20280;-71
2021/09/11 10:42:06;;;;;;;2.97;2.67;;;;;;;27.01;57.88;100549.22;21019517;28;20230;-65
2021/09/11 10:52:10;;;;;;;5.07;3.10;;;;;;;27.18;59.38;100528.66;20982208;28;20284;-61
2021/09/11 11:02:38;;;;;;;4.38;2.70;;;;;;;27.39;54.38;100532.41;20938319;28;20592;-70
2021/09/11 11:12:44;;;;;;;4.05;2.88;;;;;;;27.52;58.65;100516.03;20898226;28;20273;-64
2021/09/11 11:22:51;;;;;;;4.07;3.38;;;;;;;27.59;57.39;100515.03;20892735;28;20234;-67
2021/09/11 11:32:54;;;;;;;3.33;3.03;;;;;;;27.73;58.05;100504.09;20891267;28;20231;-64
2021/09/11 11:43:02;;;;;;;8.02;3.05;;;;;;;27.72;57.59;100494.19;20920862;28;20230;-63
2021/09/11 11:53:07;;;;;;;3.15;2.85;;;;;;;27.85;59.04;100502.47;20988009;28;20227;-66
2021/09/11 12:03:31;;;;;;;4.30;3.25;;;;;;;27.88;54.98;100493.81;20999948;28;20225;-69
2021/09/11 12:13:33;;;;;;;4.18;3.20;;;;;;;27.92;58.93;100492.34;20998894;28;20235;-62
2021/09/11 12:23:38;;;;;;;4.28;3.90;;;;;;;28.21;59.05;100481.03;20999322;28;20214;-61
2021/09/11 12:33:42;;;;;;;5.47;3.80;;;;;;;28.51;58.82;100475.13;20998006;28;20572;-64
2021/09/11 12:43:46;;;;;;;5.25;4.75;;;;;;;28.65;58.40;100461.19;20995811;28;20254;-63
2021/09/11 12:53:48;;;;;;;5.93;5.18;;;;;;;28.73;58.51;100462.88;20995240;28;20231;-64
2021/09/11 13:03:53;;;;;;;5.20;4.75;;;;;;;28.48;58.77;100448.97;20993789;28;20276;-62
2021/09/11 13:13:56;;;;;;;5.30;3.90;;;;;;;28.54;58.72;100441.75;20989703;28;20227;-63
2021/09/11 13:24:00;;;;;;;9.10;7.40;;;;;;;28.41;58.04;100431.63;20921356;28;20235;-63
2021/09/11 13:34:03;;;;;;;4.03;3.72;;;;;;;28.60;59.47;100435.44;20909229;28;20257;-64
2021/09/11 13:44:07;;;;;;;4.40;4.00;;;;;;;28.46;58.80;100426.34;20910282;28;20310;-63
2021/09/11 13:54:09;;;;;;;3.70;3.38;;;;;;;28.44;59.38;100419.38;20908244;28;20240;-65
2021/09/11 14:04:13;;;;;;;4.80;4.25;;;;;;;28.27;57.94;100411.56;20908521;28;20327;-66
2021/09/11 14:14:15;;;;;;;4.20;3.88;;;;;;;28.08;59.03;100412.38;20907516;28;20303;-66
2021/09/11 14:24:19;;;;;;;4.78;4.35;;;;;;;27.97;60.08;100413.00;20906763;28;20223;-68
2021/09/11 14:34:21;;;;;;;4.55;4.15;;;;;;;27.85;60.43;100403.72;20903663;28;20296;-70
2021/09/11 14:44:25;;;;;;;4.38;3.85;;;;;;;27.67;61.07;100406.19;20905686;28;20590;-64
2021/09/11 14:54:29;;;;;;;14.40;4.15;;;;;;;27.60;62.09;100408.94;20905028;28;20257;-64
2021/09/11 15:04:33;;;;;;;3.53;3.28;;;;;;;27.42;62.24;100395.75;20904316;28;20227;-66
2021/09/11 15:14:36;;;;;;;4.70;4.22;;;;;;;27.23;63.00;100408.34;20903512;28;20243;-67
2021/09/11 15:24:39;;;;;;;5.65;4.20;;;;;;;26.96;64.38;100400.22;20902393;28;20731;-61
2021/09/11 15:34:42;;;;;;;3.40;3.15;;;;;;;26.62;65.64;100395.56;20903304;28;20251;-66
2021/09/11 15:44:45;;;;;;;3.20;2.90;;;;;;;26.34;67.61;100393.69;20902637;28;20289;-71
2021/09/11 15:54:48;;;;;;;5.72;4.10;;;;;;;25.92;69.50;100388.25;20902367;28;20338;-61
2021/09/11 16:04:52;;;;;;;6.15;5.57;;;;;;;25.37;72.04;100382.38;20901422;28;20602;-63
2021/09/11 16:14:54;;;;;;;5.93;4.33;;;;;;;24.81;74.73;100377.66;20901366;28;20231;-62
2021/09/11 16:24:58;;;;;;;4.17;3.87;;;;;;;24.18;77.00;100376.28;20914041;28;20231;-62
2021/09/11 16:35:00;;;;;;;4.57;4.17;;;;;;;23.53;79.85;100376.81;20915757;28;20238;-62
2021/09/11 16:45:05;;;;;;;9.07;8.17;;;;;;;22.83;82.52;100379.53;20896201;28;20230;-67
2021/09/11 16:55:10;;;;;;;18.17;9.80;;;;;;;22.12;87.12;100383.06;20914258;28;20281;-62
2021/09/11 17:05:15;;;;;;;10.80;9.77;;;;;;;21.34;93.17;100390.81;20945709;28;20266;-62
2021/09/11 17:15:17;;;;;;;8.87;7.33;;;;;;;20.64;100.00;100377.47;20911090;28;20236;-61
2021/09/11 17:25:21;;;;;;;5.73;5.13;;;;;;;20.08;100.00;100375.22;20911784;28;20255;-62
2021/09/11 17:35:29;;;;;;;7.20;5.13;;;;;;;19.64;100.00;100377.91;20910772;28;20231;-61
2021/09/11 17:45:34;;;;;;;6.83;5.83;;;;;;;19.43;100.00;100385.47;20910455;28;20703;-62
2021/09/11 17:55:37;;;;;;;6.20;5.63;;;;;;;19.12;100.00;100382.25;20909462;28;20220;-63
2021/09/11 18:05:41;;;;;;;9.17;7.17;;;;;;;18.78;100.00;100387.41;20908678;28;20229;-61
2021/09/11 18:15:43;;;;;;;8.47;7.67;;;;;;;18.53;100.00;100397.00;20907654;28;20241;-66
2021/09/11 18:25:47;;;;;;;19.40;14.20;;;;;;;18.37;100.00;100402.16;20907449;28;20273;-63
2021/09/11 18:35:49;;;;;;;10.07;9.07;;;;;;;18.16;100.00;100421.28;20906197;28;20294;-63
2021/09/11 18:45:53;;;;;;;8.23;7.43;;;;;;;18.01;100.00;100422.72;20903081;28;20277;-61
2021/09/11 18:55:56;;;;;;;7.90;7.20;;;;;;;18.00;100.00;100429.09;20903040;28;20708;-61
2021/09/11 19:06:01;;;;;;;6.50;6.00;;;;;;;18.18;100.00;100430.09;20904882;28;20237;-63
2021/09/11 19:16:05;;;;;;;7.60;7.00;;;;;;;18.13;100.00;100428.81;20903412;28;20239;-64
2021/09/11 19:26:09;;;;;;;7.80;7.10;;;;;;;17.91;100.00;100425.44;20902996;28;20229;-63
2021/09/11 19:36:14;;;;;;;10.90;9.80;;;;;;;17.85;100.00;100433.25;20901235;28;20241;-65
2021/09/11 19:46:18;;;;;;;8.40;7.60;;;;;;;17.79;100.00;100431.13;20900326;28;20312;-63
2021/09/11 19:56:20;;;;;;;7.97;7.27;;;;;;;17.63;100.00;100419.03;20910770;28;20231;-63
2021/09/11 20:06:24;;;;;;;8.97;8.27;;;;;;;17.26;100.00;100424.22;20918183;28;20724;-62
2021/09/11 20:16:27;;;;;;;10.07;9.17;;;;;;;16.92;100.00;100422.81;20917222;28;20310;-61
2021/09/11 20:26:30;;;;;;;9.77;8.53;;;;;;;16.69;100.00;100422.16;20916928;28;20281;-64
2021/09/11 20:36:33;;;;;;;12.20;10.90;;;;;;;16.71;100.00;100427.44;20915954;28;20225;-62
2021/09/11 20:46:39;;;;;;;13.20;11.80;;;;;;;16.84;100.00;100431.59;20915210;28;20227;-64
2021/09/11 20:56:43;;;;;;;14.10;12.80;;;;;;;16.74;100.00;100424.47;20913935;28;20600;-63
2021/09/11 21:06:47;;;;;;;13.73;12.53;;;;;;;16.67;100.00;100420.59;20912830;28;20669;-65
2021/09/11 21:16:50;;;;;;;12.43;11.33;;;;;;;16.36;100.00;100417.00;20912619;28;20289;-61
2021/09/11 21:26:56;;;;;;;12.63;11.37;;;;;;;16.05;100.00;100419.66;20911181;28;20322;-61
2021/09/11 21:36:59;;;;;;;10.63;9.73;;;;;;;15.94;100.00;100418.88;20911110;28;20232;-63
2021/09/11 21:47:07;;;;;;;10.60;9.67;;;;;;;15.84;100.00;100424.16;20909130;28;20361;-64
2021/09/11 21:57:15;;;;;;;16.30;14.70;;;;;;;15.79;100.00;100421.88;20908033;28;20327;-64
2021/09/11 22:07:20;;;;;;;15.03;13.63;;;;;;;15.75;100.00;100419.56;20909049;28;20235;-63
2021/09/11 22:17:22;;;;;;;22.07;19.53;;;;;;;15.95;100.00;100431.31;20907100;28;20235;-63
2021/09/11 22:37:38;;;;;;;16.37;14.80;;;;;;;16.38;100.00;100429.38;21198425;27;21109;-64
2021/09/11 22:47:40;;;;;;;18.10;16.27;;;;;;;16.25;100.00;100427.84;21227181;27;20229;-61
2021/09/11 22:57:45;;;;;;;12.37;11.27;;;;;;;15.94;100.00;100430.47;21226252;27;20228;-64
2021/09/11 23:07:47;;;;;;;16.03;14.63;;;;;;;15.62;100.00;100440.41;21225366;27;20229;-63
2021/09/11 23:17:50;;;;;;;19.07;17.03;;;;;;;15.44;100.00;100432.00;21225318;27;20284;-62
2021/09/11 23:27:53;;;;;;;18.37;16.77;;;;;;;15.42;100.00;100431.28;21224758;27;20227;-63
2021/09/11 23:37:57;;;;;;;20.97;19.03;;;;;;;15.39;100.00;100429.69;21223990;27;20693;-63
2021/09/11 23:47:59;;;;;;;20.70;18.70;;;;;;;15.38;100.00;100427.97;21170683;27;20308;-63
2021/09/11 23:58:02;;;;;;;18.83;16.97;;;;;;;15.26;100.00;100415.53;21164876;28;20324;-63
